createdAt,value
2022-11-17T15:53:02.377Z,15.20
2022-11-17T15:55:15.817Z,14.00
2022-11-17T15:57:45.187Z,17.30
2022-11-17T16:00:15.501Z,14.80
2022-11-17T16:02:44.675Z,20.17
2022-11-17T16:05:13.862Z,15.03
2022-11-17T16:10:14.395Z,13.85
2022-11-17T16:16:10.447Z,13.68
2022-11-17T16:18:43.564Z,13.83
2022-11-17T16:21:13.449Z,15.75
2022-11-17T16:23:45.489Z,14.47
2022-11-17T16:26:15.541Z,14.33
2022-11-17T16:28:44.929Z,15.55
2022-11-17T16:31:22.620Z,16.05
2022-11-17T16:33:53.174Z,14.68
2022-11-17T16:36:24.086Z,16.52
2022-11-17T16:39:01.225Z,13.10
2022-11-17T16:41:34.154Z,10.53
2022-11-17T16:44:10.651Z,13.68
2022-11-17T16:46:41.303Z,12.85
2022-11-17T16:49:12.075Z,15.48
2022-11-17T16:51:40.685Z,14.53
2022-11-17T16:54:11.817Z,16.57
2022-11-17T16:56:40.592Z,13.93
2022-11-17T16:59:11.263Z,17.00
2022-11-17T17:01:40.167Z,18.20
2022-11-17T17:04:09.951Z,12.68
2022-11-17T17:06:43.314Z,15.43
2022-11-17T17:09:15.462Z,13.55
2022-11-17T17:11:47.165Z,16.77
2022-11-17T17:14:16.717Z,13.90
2022-11-17T17:16:45.972Z,20.40
2022-11-17T17:19:16.206Z,11.33
2022-11-17T17:21:46.048Z,13.62
2022-11-17T17:24:15.110Z,13.62
2022-11-17T17:26:44.343Z,12.30
2022-11-17T17:29:14.045Z,13.83
2022-11-17T17:31:43.131Z,14.90
2022-11-17T17:34:13.833Z,12.65
2022-11-17T17:36:42.527Z,12.88
2022-11-17T17:39:15.589Z,12.65
2022-11-17T17:41:45.641Z,11.38
2022-11-17T17:44:18.248Z,11.25
2022-11-17T17:46:47.123Z,15.10
2022-11-17T17:49:18.403Z,14.15
2022-11-17T17:51:48.072Z,11.63
2022-11-17T17:54:19.605Z,15.03
2022-11-17T17:56:48.627Z,10.18
2022-11-17T17:59:17.636Z,11.22
2022-11-17T18:01:48.002Z,11.20
2022-11-17T18:04:17.568Z,10.38
2022-11-17T18:06:48.798Z,10.13
2022-11-17T18:09:20.430Z,10.78
2022-11-17T18:11:50.721Z,10.72
2022-11-17T18:14:23.828Z,10.82
2022-11-17T18:16:53.490Z,9.70
2022-11-17T18:19:24.783Z,11.08
2022-11-17T18:21:53.220Z,11.10
2022-11-17T18:24:23.067Z,11.55
2022-11-17T18:26:52.490Z,11.50
2022-11-17T18:29:22.074Z,9.95
2022-11-17T18:31:51.381Z,10.25
2022-11-17T18:34:23.180Z,11.90
2022-11-17T18:36:55.472Z,12.35
2022-11-17T18:39:25.294Z,11.28
2022-11-17T18:41:54.482Z,11.00
2022-11-17T18:44:23.246Z,10.53
2022-11-17T18:46:52.114Z,12.60
2022-11-17T18:49:21.322Z,11.30
2022-11-17T18:51:50.808Z,12.40
2022-11-17T18:54:20.697Z,13.03
2022-11-17T18:56:50.363Z,10.90
2022-11-17T18:59:20.100Z,12.63
2022-11-17T19:01:49.931Z,8.45
2022-11-17T19:04:18.998Z,11.83
2022-11-17T19:06:47.756Z,11.15
2022-11-17T19:09:17.986Z,12.43
2022-11-17T19:12:05.624Z,12.13
2022-11-17T19:14:40.145Z,9.35
2022-11-17T19:17:08.945Z,11.55
2022-11-17T19:19:40.149Z,9.38
2022-11-17T19:22:08.972Z,10.00
2022-11-17T19:24:40.765Z,11.65
2022-11-17T19:27:09.895Z,10.18
2022-11-17T19:29:41.259Z,12.10
2022-11-17T19:32:09.956Z,8.00
2022-11-17T19:34:41.617Z,13.05
2022-11-17T19:37:10.701Z,22.52
2022-11-17T19:39:39.977Z,10.98
2022-11-17T19:42:09.201Z,12.10
2022-11-17T19:44:38.170Z,11.10
2022-11-17T19:47:06.814Z,15.45
2022-11-17T19:49:35.757Z,11.35
2022-11-17T19:52:08.204Z,10.78
2022-11-17T19:54:37.212Z,11.22
2022-11-17T19:57:06.291Z,10.10
2022-11-17T19:59:35.658Z,13.03
2022-11-17T20:02:04.249Z,10.53
2022-11-17T20:04:33.287Z,9.98
2022-11-17T20:07:01.885Z,10.72
2022-11-17T20:09:32.118Z,9.75
2022-11-17T20:12:01.120Z,11.73
2022-11-17T20:14:33.572Z,12.60
2022-11-17T20:17:03.968Z,10.80
2022-11-17T20:19:33.797Z,9.48
2022-11-17T20:22:03.129Z,9.75
2022-11-17T20:24:32.951Z,12.23
2022-11-17T20:27:02.395Z,10.23
2022-11-17T20:29:32.240Z,8.73
2022-11-17T20:32:01.415Z,11.85
2022-11-17T20:34:30.165Z,8.85
2022-11-17T20:36:59.340Z,8.30
2022-11-17T20:39:28.195Z,16.42
2022-11-17T20:41:57.410Z,9.18
2022-11-17T20:44:26.606Z,10.60
2022-11-17T20:46:56.835Z,9.90
2022-11-17T20:49:27.589Z,8.65
2022-11-17T20:51:57.344Z,10.60
2022-11-17T20:54:26.030Z,11.95
2022-11-17T20:56:55.558Z,9.13
2022-11-17T20:59:24.587Z,9.40
2022-11-17T21:01:53.549Z,9.05
2022-11-17T21:04:24.029Z,9.00
2022-11-17T21:06:53.960Z,7.95
2022-11-17T21:16:37.754Z,9.05
2022-11-17T21:19:09.560Z,9.60
2022-11-17T21:21:39.858Z,7.15
2022-11-17T21:24:09.577Z,9.83
2022-11-17T21:26:38.394Z,8.28
2022-11-17T21:29:07.731Z,8.55
2022-11-17T21:31:38.467Z,8.63
2022-11-17T21:34:16.604Z,9.95
2022-11-17T21:36:45.952Z,5.85
2022-11-17T21:39:16.820Z,8.68
2022-11-17T21:41:46.511Z,7.42
2022-11-17T21:44:15.798Z,7.47
2022-11-17T21:46:44.624Z,5.95
2022-11-17T21:49:14.588Z,6.92
2022-11-17T21:51:45.784Z,7.87
2022-11-17T21:54:14.572Z,6.92
2022-11-17T21:56:45.853Z,7.35
2022-11-17T21:59:16.490Z,7.50
2022-11-17T22:01:45.926Z,7.10
2022-11-17T22:04:15.793Z,7.10
2022-11-17T22:06:44.551Z,6.97
2022-11-17T22:09:16.046Z,6.08
2022-11-17T22:11:45.528Z,6.45
2022-11-17T22:14:19.044Z,8.60
2022-11-17T22:16:54.120Z,6.12
2022-11-17T22:19:26.519Z,6.92
2022-11-17T22:21:55.432Z,7.03
2022-11-17T22:24:25.765Z,6.33
2022-11-17T22:26:55.331Z,6.40
2022-11-17T22:29:25.115Z,7.50
2022-11-17T22:31:53.921Z,8.45
2022-11-17T22:34:23.865Z,6.92
2022-11-17T22:36:53.011Z,7.17
2022-11-17T22:39:22.370Z,7.15
2022-11-17T22:41:52.159Z,8.15
2022-11-17T22:44:22.077Z,8.35
2022-11-17T22:46:50.962Z,9.25
2022-11-17T22:49:20.489Z,7.80
2022-11-17T22:52:06.633Z,7.28
2022-11-17T22:54:36.099Z,13.37
2022-11-17T22:57:05.186Z,6.05
2022-11-17T22:59:35.874Z,7.58
2022-11-17T23:02:05.687Z,7.80
2022-11-17T23:04:35.135Z,6.90
2022-11-17T23:07:04.625Z,7.83
2022-11-17T23:09:35.152Z,6.83
2022-11-17T23:12:04.567Z,7.35
2022-11-17T23:14:33.568Z,8.65
2022-11-17T23:17:02.669Z,5.92
2022-11-17T23:19:31.890Z,7.40
2022-11-17T23:22:01.149Z,7.95
2022-11-17T23:24:30.576Z,6.70
2022-11-17T23:26:59.865Z,6.00
2022-11-17T23:29:29.062Z,8.63
2022-11-17T23:31:59.184Z,6.42
2022-11-17T23:34:28.367Z,6.50
2022-11-17T23:37:21.475Z,7.22
2022-11-17T23:39:52.207Z,5.55
2022-11-17T23:42:21.362Z,8.70
2022-11-17T23:44:51.719Z,10.63
2022-11-17T23:47:20.890Z,6.30
2022-11-17T23:49:50.929Z,6.10
2022-11-17T23:52:19.831Z,8.03
2022-11-17T23:54:48.997Z,5.45
2022-11-17T23:57:19.321Z,6.55
2022-11-17T23:59:48.527Z,6.58
